Time;durP1;ratioP1;P1;durP2;ratioP2;P2;SDS_P1;SDS_P2;PMS_P1;PMS_P2;Temp;Humidity;BMP_temperature;BMP_pressure;BME280_temperature;BME280_humidity;BME280_pressure;Samples;Min_cycle;Max_cycle;Signal;HPM_P1;HPM_P2
2022/07/17 00:02:03;;;;;;;;;;;;;;;16.54;51.08;102150.53;4994656;28;20016;-80
2022/07/17 00:04:28;;;;;;;;;;;;;;;16.57;50.75;102145.22;4986889;28;20312;-80
2022/07/17 00:06:55;;;;;;;;;;;;;;;16.56;50.30;102143.50;4984419;28;20170;-80
2022/07/17 00:09:21;;;;;;;;;;;;;;;16.59;49.88;102143.41;4988768;28;19918;-78
2022/07/17 00:11:46;;;;;;;;;;;;;;;16.69;48.98;102142.34;4987879;28;20060;-78
2022/07/17 00:14:12;;;;;;;;;;;;;;;16.63;50.28;102141.59;4990422;28;19926;-78
2022/07/17 00:16:37;;;;;;;;;;;;;;;16.58;50.70;102138.22;4992856;28;20289;-78
2022/07/17 00:19:02;;;;;;;;;;;;;;;16.62;51.13;102142.47;4988258;28;20308;-78
2022/07/17 00:21:28;;;;;;;;;;;;;;;16.52;51.36;102144.47;4984423;28;20041;-78
2022/07/17 00:23:53;;;;;;;;;;;;;;;16.51;51.53;102142.75;4987996;28;19952;-78
2022/07/17 00:26:19;;;;;;;;;;;;;;;16.48;51.86;102140.19;4991785;28;19921;-78
2022/07/17 00:28:44;;;;;;;;;;;;;;;16.56;51.79;102147.88;4996192;28;19932;-78
2022/07/17 00:31:09;;;;;;;;;;;;;;;16.48;51.77;102143.69;4989346;28;19956;-78
2022/07/17 00:33:35;;;;;;;;;;;;;;;16.40;51.55;102145.59;4989243;28;19925;-78
2022/07/17 00:36:00;;;;;;;;;;;;;;;16.47;51.04;102141.94;4981835;28;19930;-78
2022/07/17 00:38:25;;;;;;;;;;;;;;;16.42;51.88;102140.34;4984630;28;20665;-78
2022/07/17 00:40:57;;;;;;;;;;;;;;;16.35;52.06;102141.38;4988205;28;19925;-78
2022/07/17 00:43:23;;;;;;;;;;;;;;;16.29;51.61;102139.75;4996075;28;19921;-78
2022/07/17 00:45:58;;;;;;;;;;;;;;;16.29;51.58;102142.38;4987864;28;20377;-78
2022/07/17 00:48:24;;;;;;;;;;;;;;;16.29;51.64;102142.38;4989901;28;19917;-81
2022/07/17 00:50:49;;;;;;;;;;;;;;;16.18;51.30;102140.91;4977118;28;19989;-81
2022/07/17 00:53:15;;;;;;;;;;;;;;;16.24;51.67;102139.00;4982734;28;20021;-81
2022/07/17 00:55:40;;;;;;;;;;;;;;;16.20;51.41;102139.09;4986693;28;19980;-81
2022/07/17 00:58:07;;;;;;;;;;;;;;;16.19;51.56;102138.25;4988792;28;19925;-81
2022/07/17 01:00:33;;;;;;;;;;;;;;;16.13;51.84;102135.78;4990584;28;19921;-81
2022/07/17 01:02:58;;;;;;;;;;;;;;;16.05;52.08;102137.69;5000962;28;20340;-81
2022/07/17 01:05:24;;;;;;;;;;;;;;;16.02;52.35;102137.75;4989218;28;19926;-81
2022/07/17 01:07:50;;;;;;;;;;;;;;;16.12;51.78;102131.41;4988891;28;19929;-81
2022/07/17 01:10:19;;;;;;;;;;;;;;;16.10;52.10;102133.22;4982193;28;19926;-81
2022/07/17 01:12:45;;;;;;;;;;;;;;;16.05;52.28;102132.44;4982130;28;19988;-82
2022/07/17 01:15:11;;;;;;;;;;;;;;;16.02;52.39;102126.44;4984500;28;19968;-81
2022/07/17 01:17:36;;;;;;;;;;;;;;;16.05;51.45;102134.19;4999582;28;20536;-78
2022/07/17 01:20:06;;;;;;;;;;;;;;;16.03;52.37;102133.38;5004828;28;19976;-78
2022/07/17 01:22:31;;;;;;;;;;;;;;;15.99;51.73;102142.22;5008420;28;20396;-78
2022/07/17 01:24:56;;;;;;;;;;;;;;;15.98;51.81;102149.22;5008068;28;19960;-78
2022/07/17 01:27:22;;;;;;;;;;;;;;;15.90;52.05;102151.97;5003733;28;20364;-78
2022/07/17 01:29:47;;;;;;;;;;;;;;;15.93;52.18;102151.03;5001957;28;19936;-78
2022/07/17 01:32:12;;;;;;;;;;;;;;;15.89;52.10;102158.13;5005241;28;19979;-78
2022/07/17 01:34:38;;;;;;;;;;;;;;;15.81;52.11;102152.16;5006287;28;19937;-78
2022/07/17 01:37:03;;;;;;;;;;;;;;;15.86;52.11;102162.56;5001888;28;19960;-78
2022/07/17 01:42:12;;;;;;;;;;;;;;;15.82;52.17;102156.53;5002900;28;19979;-78
2022/07/17 01:44:38;;;;;;;;;;;;;;;15.73;52.31;102153.19;5005098;28;19925;-78
2022/07/17 01:47:04;;;;;;;;;;;;;;;15.63;53.40;102162.16;5009518;28;19921;-78
2022/07/17 01:49:29;;;;;;;;;;;;;;;15.66;53.32;102156.84;5006314;28;19932;-78
2022/07/17 01:51:59;;;;;;;;;;;;;;;15.64;53.47;102151.63;5005794;28;20331;-78
2022/07/17 01:54:25;;;;;;;;;;;;;;;15.54;53.89;102150.06;5004248;28;19921;-78
2022/07/17 01:56:50;;;;;;;;;;;;;;;15.55;54.05;102150.94;5005799;28;20450;-81
2022/07/17 01:59:15;;;;;;;;;;;;;;;15.65;53.83;102148.13;5008730;28;19928;-81
2022/07/17 02:01:40;;;;;;;;;;;;;;;15.57;54.23;102147.38;5007732;28;19964;-81
2022/07/17 02:04:06;;;;;;;;;;;;;;;15.64;53.92;102142.91;5008039;28;19984;-81
2022/07/17 02:06:31;;;;;;;;;;;;;;;15.53;53.97;102147.50;5009840;28;20331;-81
2022/07/17 02:08:56;;;;;;;;;;;;;;;15.57;54.03;102143.94;5009732;28;19932;-80
2022/07/17 02:11:22;;;;;;;;;;;;;;;15.53;53.90;102147.50;5008920;28;19928;-80
2022/07/17 02:13:47;;;;;;;;;;;;;;;15.49;54.17;102149.31;5007320;28;19929;-80
2022/07/17 02:16:12;;;;;;;;;;;;;;;15.56;54.03;102142.19;5007382;28;19928;-80
2022/07/17 02:18:37;;;;;;;;;;;;;;;15.48;54.51;102144.97;5009948;28;19925;-80
2022/07/17 02:21:03;;;;;;;;;;;;;;;15.43;54.90;102147.66;5008950;28;20459;-80
2022/07/17 02:23:28;;;;;;;;;;;;;;;15.47;54.91;102140.63;5010281;28;20367;-80
2022/07/17 02:25:54;;;;;;;;;;;;;;;15.42;55.17;102140.69;5007452;28;19921;-80
2022/07/17 02:28:19;;;;;;;;;;;;;;;15.44;54.85;102138.06;5006967;28;19929;-80
2022/07/17 02:30:45;;;;;;;;;;;;;;;15.41;54.77;102132.88;5007045;28;19925;-80
2022/07/17 02:33:10;;;;;;;;;;;;;;;15.42;54.58;102139.84;5008835;28;19934;-80
2022/07/17 02:35:36;;;;;;;;;;;;;;;15.32;54.56;102133.06;5008175;28;19972;-79
2022/07/17 02:38:01;;;;;;;;;;;;;;;15.30;54.96;102140.09;5003427;28;19936;-80
2022/07/17 02:40:26;;;;;;;;;;;;;;;15.33;54.39;102146.09;5007303;28;19996;-80
2022/07/17 02:42:52;;;;;;;;;;;;;;;15.33;54.81;102145.25;5006399;28;19917;-80
2022/07/17 02:45:21;;;;;;;;;;;;;;;15.27;55.05;102153.22;5009219;28;19961;-80
2022/07/17 02:47:46;;;;;;;;;;;;;;;15.24;55.06;102156.78;5005224;28;20386;-80
2022/07/17 02:50:12;;;;;;;;;;;;;;;15.16;55.33;102158.66;5007682;28;19925;-79
2022/07/17 02:52:38;;;;;;;;;;;;;;;15.27;55.21;102156.69;5006996;28;19960;-79
2022/07/17 02:55:03;;;;;;;;;;;;;;;15.18;55.11;102154.25;5003538;28;21615;-79
2022/07/17 02:57:28;;;;;;;;;;;;;;;15.31;54.86;102158.38;5008336;28;19931;-78
2022/07/17 02:59:54;;;;;;;;;;;;;;;15.22;55.00;102152.44;5010491;28;20004;-78
2022/07/17 03:02:19;;;;;;;;;;;;;;;15.24;54.93;102153.28;5007268;28;20618;-78
2022/07/17 03:04:44;;;;;;;;;;;;;;;15.19;54.90;102152.47;5003303;28;19926;-78
2022/07/17 03:07:10;;;;;;;;;;;;;;;15.25;54.67;102148.00;5004384;28;19925;-81
2022/07/17 03:09:36;;;;;;;;;;;;;;;15.24;54.03;102145.44;5008973;28;20304;-81
2022/07/17 03:12:01;;;;;;;;;;;;;;;15.16;54.62;102137.69;5001975;28;20011;-81
2022/07/17 03:14:26;;;;;;;;;;;;;;;15.09;54.39;102143.09;5002849;28;19950;-81
2022/07/17 03:16:52;;;;;;;;;;;;;;;15.00;54.75;102145.88;5006644;28;19926;-79
2022/07/17 03:19:18;;;;;;;;;;;;;;;15.08;54.53;102150.06;5010210;28;19932;-79
2022/07/17 03:21:44;;;;;;;;;;;;;;;15.03;54.73;102143.19;5002655;28;19930;-79
2022/07/17 03:24:09;;;;;;;;;;;;;;;15.07;54.41;102143.09;5008102;28;19931;-80
2022/07/17 03:26:34;;;;;;;;;;;;;;;15.26;54.37;102148.88;5005952;28;19922;-80
2022/07/17 03:29:00;;;;;;;;;;;;;;;15.04;54.62;102150.13;5008687;28;19929;-80
2022/07/17 03:31:25;;;;;;;;;;;;;;;14.96;54.66;102157.25;5004460;28;19932;-80
2022/07/17 03:33:50;;;;;;;;;;;;;;;14.98;54.62;102155.50;5001244;28;19929;-80
2022/07/17 03:36:16;;;;;;;;;;;;;;;14.96;54.55;102144.19;5005616;28;19972;-80
2022/07/17 03:38:41;;;;;;;;;;;;;;;15.00;54.67;102151.97;5006141;28;19965;-80
2022/07/17 03:41:06;;;;;;;;;;;;;;;15.01;54.68;102151.06;5003482;28;19992;-80
2022/07/17 03:43:32;;;;;;;;;;;;;;;14.97;54.62;102151.16;5005526;28;20032;-79
2022/07/17 03:45:57;;;;;;;;;;;;;;;14.98;55.20;102147.66;5004388;28;20454;-80
2022/07/17 03:48:22;;;;;;;;;;;;;;;14.99;54.59;102146.75;5010614;28;19928;-80
2022/07/17 03:50:48;;;;;;;;;;;;;;;14.96;54.21;102154.66;5009933;28;19932;-80
2022/07/17 03:53:13;;;;;;;;;;;;;;;14.87;54.46;102163.53;5004022;28;20582;-80
2022/07/17 03:55:38;;;;;;;;;;;;;;;14.93;54.13;102155.56;5008151;28;19926;-78
2022/07/17 03:58:04;;;;;;;;;;;;;;;14.89;54.42;102161.72;5008862;28;19922;-78
2022/07/17 04:00:29;;;;;;;;;;;;;;;14.74;54.94;102172.44;5013027;28;19921;-78
2022/07/17 04:02:54;;;;;;;;;;;;;;;14.86;54.68;102165.25;5008640;28;19929;-78
2022/07/17 04:05:20;;;;;;;;;;;;;;;14.89;55.12;102176.59;5010199;28;19922;-78
2022/07/17 04:07:46;;;;;;;;;;;;;;;14.77;54.86;102178.50;5010924;28;19925;-78
2022/07/17 04:10:12;;;;;;;;;;;;;;;14.78;55.27;102185.47;5014245;28;20439;-78
2022/07/17 04:12:38;;;;;;;;;;;;;;;14.87;54.67;102184.44;5003552;28;19918;-78
2022/07/17 04:15:04;;;;;;;;;;;;;;;14.77;54.76;102190.69;5001906;28;19948;-78
2022/07/17 04:17:29;;;;;;;;;;;;;;;14.90;54.58;102188.75;5006426;28;19987;-78
2022/07/17 04:19:55;;;;;;;;;;;;;;;14.78;55.01;102192.44;5010684;28;19925;-78
2022/07/17 04:22:20;;;;;;;;;;;;;;;14.80;54.91;102198.50;5006312;28;19929;-78
2022/07/17 04:24:45;;;;;;;;;;;;;;;14.68;55.05;102196.91;5006981;28;20384;-78
2022/07/17 04:27:11;;;;;;;;;;;;;;;14.76;54.92;102199.47;5007480;28;20012;-78
2022/07/17 04:29:36;;;;;;;;;;;;;;;14.89;54.46;102197.53;5010928;28;19936;-78
2022/07/17 04:32:02;;;;;;;;;;;;;;;14.80;55.18;102193.28;5008006;28;20029;-78
2022/07/17 04:34:27;;;;;;;;;;;;;;;14.69;55.50;102188.19;5005027;28;19988;-77
2022/07/17 04:36:53;;;;;;;;;;;;;;;14.86;55.09;102194.03;5009587;28;19928;-79
2022/07/17 04:39:18;;;;;;;;;;;;;;;14.88;54.81;102183.56;5008578;28;19918;-79
2022/07/17 04:41:43;;;;;;;;;;;;;;;14.87;55.09;102179.22;5004463;28;20017;-80
2022/07/17 04:44:09;;;;;;;;;;;;;;;14.92;55.41;102190.47;5005865;28;19943;-79
2022/07/17 04:46:34;;;;;;;;;;;;;;;14.93;55.02;102186.09;5002128;28;19972;-79
2022/07/17 04:48:59;;;;;;;;;;;;;;;14.89;55.32;102179.22;5005152;28;19926;-79
2022/07/17 04:51:25;;;;;;;;;;;;;;;14.88;55.49;102180.94;5004387;28;19914;-80
2022/07/17 04:53:50;;;;;;;;;;;;;;;14.98;55.24;102182.50;5005223;28;19941;-80
2022/07/17 04:56:15;;;;;;;;;;;;;;;15.06;54.79;102178.03;5002719;28;20021;-79
2022/07/17 04:58:41;;;;;;;;;;;;;;;14.95;55.60;102186.97;5005985;28;20404;-80
2022/07/17 05:01:06;;;;;;;;;;;;;;;15.02;55.76;102178.97;5005566;28;19944;-78
2022/07/17 05:03:31;;;;;;;;;;;;;;;15.00;55.93;102175.53;5008238;28;19914;-78
2022/07/17 05:05:57;;;;;;;;;;;;;;;14.99;56.00;102192.09;5004692;28;19921;-78
2022/07/17 05:08:22;;;;;;;;;;;;;;;15.13;55.93;102190.09;5007397;28;19926;-78
2022/07/17 05:10:47;;;;;;;;;;;;;;;15.05;55.76;102199.84;5003027;28;19933;-78
2022/07/17 05:13:13;;;;;;;;;;;;;;;15.10;56.25;102191.91;5004362;28;20304;-78
2022/07/17 05:15:38;;;;;;;;;;;;;;;15.17;55.86;102189.19;5006384;28;19918;-78
2022/07/17 05:18:04;;;;;;;;;;;;;;;15.09;56.07;102201.53;5008046;28;19975;-78
2022/07/17 05:20:29;;;;;;;;;;;;;;;15.20;56.57;102209.19;5011140;28;19932;-78
2022/07/17 05:22:55;;;;;;;;;;;;;;;15.18;55.97;102203.13;5001232;28;19961;-77
2022/07/17 05:25:20;;;;;;;;;;;;;;;15.09;56.43;102198.06;5003829;28;19940;-79
2022/07/17 05:27:46;;;;;;;;;;;;;;;15.07;55.52;102200.69;5005457;28;19948;-78
2022/07/17 05:30:11;;;;;;;;;;;;;;;15.18;55.25;102196.16;5004972;28;19944;-78
2022/07/17 05:32:36;;;;;;;;;;;;;;;15.21;55.63;102203.06;5005490;28;20327;-78
2022/07/17 05:35:02;;;;;;;;;;;;;;;15.23;55.84;102198.66;5009350;28;20304;-78
2022/07/17 05:37:27;;;;;;;;;;;;;;;15.24;55.54;102210.88;5002397;28;20312;-78
2022/07/17 05:39:52;;;;;;;;;;;;;;;15.24;55.68;102226.59;5009311;28;20012;-78
2022/07/17 05:42:18;;;;;;;;;;;;;;;15.28;55.75;102221.25;5011878;28;19967;-78
2022/07/17 05:44:43;;;;;;;;;;;;;;;15.27;56.02;102221.28;5000401;28;19926;-78
2022/07/17 05:47:08;;;;;;;;;;;;;;;15.28;56.21;102223.88;5005380;28;19925;-79
2022/07/17 05:49:34;;;;;;;;;;;;;;;15.29;56.61;102241.31;5002609;28;19921;-79
2022/07/17 05:51:59;;;;;;;;;;;;;;;15.27;56.70;102230.00;5005593;28;19932;-79
2022/07/17 05:54:24;;;;;;;;;;;;;;;15.32;56.77;102228.19;5004843;28;19970;-80
2022/07/17 05:56:50;;;;;;;;;;;;;;;15.33;56.53;102229.88;5003268;28;19929;-78
2022/07/17 05:59:15;;;;;;;;;;;;;;;15.30;56.76;102218.63;5006523;28;19979;-78
2022/07/17 06:01:41;;;;;;;;;;;;;;;15.35;56.64;102233.38;5002594;28;19972;-78
2022/07/17 06:04:07;;;;;;;;;;;;;;;15.36;56.41;102221.97;5000438;28;19918;-78
2022/07/17 06:06:32;;;;;;;;;;;;;;;15.44;56.68;102237.56;5003292;28;20385;-78
2022/07/17 06:08:57;;;;;;;;;;;;;;;15.46;56.42;102241.00;5007834;28;19921;-78
2022/07/17 06:11:23;;;;;;;;;;;;;;;15.55;56.52;102237.38;5009946;28;19928;-78
2022/07/17 06:13:48;;;;;;;;;;;;;;;15.65;56.51;102234.56;5002505;28;20339;-78
2022/07/17 06:16:13;;;;;;;;;;;;;;;15.57;56.58;102244.28;5007352;28;19928;-78
2022/07/17 06:18:39;;;;;;;;;;;;;;;15.52;56.42;102243.53;5005315;28;19925;-78
2022/07/17 06:21:04;;;;;;;;;;;;;;;15.58;56.02;102251.28;5002105;28;19987;-78
2022/07/17 06:23:30;;;;;;;;;;;;;;;15.64;56.00;102242.44;4997937;28;20080;-78
2022/07/17 06:25:55;;;;;;;;;;;;;;;15.62;56.40;102250.34;5000211;28;19976;-81
2022/07/17 06:28:21;;;;;;;;;;;;;;;15.60;56.05;102246.84;5001681;28;19929;-81
2022/07/17 06:30:46;;;;;;;;;;;;;;;15.70;55.49;102239.69;5002587;28;19931;-78
2022/07/17 06:33:11;;;;;;;;;;;;;;;15.73;56.01;102231.78;5003447;28;19921;-78
2022/07/17 06:35:37;;;;;;;;;;;;;;;15.73;55.63;102235.28;5002983;28;19925;-81
2022/07/17 06:38:02;;;;;;;;;;;;;;;15.75;55.20;102244.00;5004183;28;19921;-82
2022/07/17 06:40:28;;;;;;;;;;;;;;;15.81;56.12;102235.16;5000802;28;19930;-82
2022/07/17 06:42:53;;;;;;;;;;;;;;;15.82;55.63;102229.03;5005122;28;19944;-81
2022/07/17 06:45:18;;;;;;;;;;;;;;;15.82;56.00;102242.13;5005649;28;20044;-81
2022/07/17 06:47:44;;;;;;;;;;;;;;;15.85;55.19;102239.44;5005231;28;20051;-81
2022/07/17 06:50:10;;;;;;;;;;;;;;;15.89;55.42;102241.13;5007684;28;19921;-81
2022/07/17 06:52:35;;;;;;;;;;;;;;;16.00;55.34;102227.78;5007743;28;19922;-81
2022/07/17 06:55:01;;;;;;;;;;;;;;;16.01;54.79;102221.66;5005493;28;20396;-81
2022/07/17 06:57:26;;;;;;;;;;;;;;;15.97;55.28;102223.47;5006619;28;19930;-81
2022/07/17 06:59:52;;;;;;;;;;;;;;;15.97;55.83;102215.63;5004535;28;20008;-80
2022/07/17 07:02:17;;;;;;;;;;;;;;;16.02;55.48;102207.69;5009641;28;20296;-80
2022/07/17 07:04:43;;;;;;;;;;;;;;;16.00;56.00;102212.06;5009055;28;19932;-81
2022/07/17 07:07:09;;;;;;;;;;;;;;;16.09;54.33;102209.25;5006101;28;20392;-81
2022/07/17 07:09:34;;;;;;;;;;;;;;;16.04;55.01;102203.25;5005429;28;19994;-81
2022/07/17 07:11:59;;;;;;;;;;;;;;;16.12;54.38;102199.56;5005375;28;20403;-82
2022/07/17 07:14:25;;;;;;;;;;;;;;;16.12;55.00;102210.06;5008133;28;19935;-82
2022/07/17 07:16:50;;;;;;;;;;;;;;;16.18;54.55;102201.19;5003776;28;19925;-81
2022/07/17 07:19:16;;;;;;;;;;;;;;;16.21;55.16;102202.00;5005397;28;19925;-81
2022/07/17 07:21:41;;;;;;;;;;;;;;;16.29;54.93;102204.44;5008154;28;19922;-81
2022/07/17 07:24:06;;;;;;;;;;;;;;;16.30;54.85;102209.66;5004622;28;20312;-81
2022/07/17 07:26:32;;;;;;;;;;;;;;;16.37;54.84;102206.00;5000208;28;19979;-81
2022/07/17 07:28:57;;;;;;;;;;;;;;;16.42;54.54;102203.28;5004911;28;20019;-79
2022/07/17 07:31:22;;;;;;;;;;;;;;;16.40;54.75;102198.06;5002502;28;19925;-79
2022/07/17 07:33:48;;;;;;;;;;;;;;;16.46;54.32;102202.34;4989513;28;20076;-80
2022/07/17 07:36:13;;;;;;;;;;;;;;;16.38;54.86;102199.00;5005297;28;19929;-80
2022/07/17 07:38:38;;;;;;;;;;;;;;;16.46;54.33;102199.72;5004470;28;19933;-80
2022/07/17 07:41:04;;;;;;;;;;;;;;;16.37;53.84;102197.28;5004427;28;19996;-80
2022/07/17 07:43:30;;;;;;;;;;;;;;;16.46;53.70;102200.53;5007805;28;19929;-80
2022/07/17 07:45:55;;;;;;;;;;;;;;;16.52;54.65;102189.91;5013177;28;19921;-80
2022/07/17 07:48:21;;;;;;;;;;;;;;;16.53;54.23;102186.41;5010171;28;20419;-80
2022/07/17 07:50:46;;;;;;;;;;;;;;;16.58;54.00;102181.03;5008088;28;20048;-80
2022/07/17 07:53:12;;;;;;;;;;;;;;;16.60;54.11;102186.25;5007382;28;19947;-80
2022/07/17 07:55:37;;;;;;;;;;;;;;;16.61;53.59;102172.25;5007623;28;19925;-80
2022/07/17 07:58:06;;;;;;;;;;;;;;;16.63;54.02;102183.56;5006251;28;20376;-80
2022/07/17 08:00:31;;;;;;;;;;;;;;;16.67;53.15;102185.22;5015700;28;19924;-80
2022/07/17 08:02:57;;;;;;;;;;;;;;;16.68;52.81;102177.31;5006437;28;19922;-80
2022/07/17 08:05:22;;;;;;;;;;;;;;;16.73;52.80;102179.88;5006957;28;19965;-80
2022/07/17 08:07:47;;;;;;;;;;;;;;;16.78;52.12;102181.47;5001499;28;19953;-80
2022/07/17 08:10:13;;;;;;;;;;;;;;;16.78;53.30;102180.63;5006766;28;19928;-80
2022/07/17 08:12:38;;;;;;;;;;;;;;;16.85;52.35;102175.16;5007441;28;19965;-80
2022/07/17 08:15:04;;;;;;;;;;;;;;;16.81;51.22;102170.91;5006389;28;19930;-80
2022/07/17 08:17:30;;;;;;;;;;;;;;;16.89;50.94;102176.81;5006529;28;19967;-80
2022/07/17 08:19:55;;;;;;;;;;;;;;;16.90;51.46;102180.31;5008044;28;20637;-80
2022/07/17 08:22:20;;;;;;;;;;;;;;;16.93;51.36;102182.88;5006046;28;20351;-80
2022/07/17 08:24:46;;;;;;;;;;;;;;;16.90;52.18;102183.81;5006747;28;20459;-80
2022/07/17 08:27:11;;;;;;;;;;;;;;;16.92;51.60;102192.50;5007547;28;19921;-80
2022/07/17 08:29:36;;;;;;;;;;;;;;;16.94;50.62;102193.31;5005465;28;19929;-79
2022/07/17 08:32:01;;;;;;;;;;;;;;;16.98;49.83;102192.34;5000765;28;20540;-78
2022/07/17 08:34:27;;;;;;;;;;;;;;;17.06;49.18;102194.75;5000143;28;19932;-78
2022/07/17 08:36:52;;;;;;;;;;;;;;;17.05;49.15;102201.81;5000648;28;20324;-81
2022/07/17 08:39:17;;;;;;;;;;;;;;;17.02;50.69;102207.13;5004277;28;19925;-81
2022/07/17 08:41:43;;;;;;;;;;;;;;;17.00;50.21;102203.66;5005782;28;20404;-81
2022/07/17 08:44:08;;;;;;;;;;;;;;;17.05;49.86;102198.31;5005116;28;20415;-81
2022/07/17 08:46:38;;;;;;;;;;;;;;;17.06;50.15;102205.28;5003559;28;20007;-78
2022/07/17 08:49:04;;;;;;;;;;;;;;;17.10;50.01;102206.06;5005915;28;20403;-78
2022/07/17 08:51:29;;;;;;;;;;;;;;;17.12;50.98;102201.63;5003812;28;19929;-78
2022/07/17 08:53:55;;;;;;;;;;;;;;;17.15;50.63;102193.66;5007274;28;20336;-80
2022/07/17 08:56:21;;;;;;;;;;;;;;;17.16;49.80;102190.16;5004104;28;19929;-80
2022/07/17 08:58:46;;;;;;;;;;;;;;;17.21;48.69;102198.75;5003985;28;19925;-78
2022/07/17 09:01:11;;;;;;;;;;;;;;;17.27;47.03;102196.84;5007335;28;20056;-78
2022/07/17 09:03:38;;;;;;;;;;;;;;;17.24;47.54;102196.06;5006221;28;19932;-78
2022/07/17 09:06:04;;;;;;;;;;;;;;;17.23;49.54;102197.84;5000245;28;20375;-78
2022/07/17 09:08:32;;;;;;;;;;;;;;;17.26;47.09;102196.91;5005298;28;19968;-78
2022/07/17 09:10:58;;;;;;;;;;;;;;;17.29;45.78;102205.56;5009182;28;20598;-78
2022/07/17 09:13:28;;;;;;;;;;;;;;;17.30;46.13;102201.16;5005641;28;20052;-78
2022/07/17 09:15:58;;;;;;;;;;;;;;;17.31;46.95;102198.50;5001997;28;20012;-78
2022/07/17 09:18:23;;;;;;;;;;;;;;;17.30;48.79;102201.16;5000214;28;19953;-78
2022/07/17 09:20:48;;;;;;;;;;;;;;;17.41;46.14;102202.59;5008467;28;20007;-77
2022/07/17 09:23:14;;;;;;;;;;;;;;;17.56;45.14;102207.44;5005468;28;20377;-78
2022/07/17 09:25:41;;;;;;;;;;;;;;;17.53;44.86;102204.88;5003747;28;20431;-77
2022/07/17 09:28:07;;;;;;;;;;;;;;;17.48;45.36;102209.41;5006120;28;19939;-78
2022/07/17 09:30:34;;;;;;;;;;;;;;;17.47;45.33;102202.44;5005645;28;19972;-78
2022/07/17 09:32:59;;;;;;;;;;;;;;;17.45;44.73;102206.00;5004016;28;22229;-81
2022/07/17 09:35:26;;;;;;;;;;;;;;;17.49;45.03;102191.91;5003313;28;19953;-81
2022/07/17 09:37:52;;;;;;;;;;;;;;;17.48;45.06;102195.41;5003455;28;19936;-81
2022/07/17 09:43:02;;;;;;;;;;;;;;;17.56;44.62;102191.66;5005105;28;19929;-81
2022/07/17 09:45:27;;;;;;;;;;;;;;;17.57;44.60;102187.28;5011118;28;19921;-81
2022/07/17 09:47:53;;;;;;;;;;;;;;;17.49;45.18;102195.38;4998595;28;19928;-81
2022/07/17 09:50:18;;;;;;;;;;;;;;;17.72;42.53;102184.25;5006380;28;19984;-82
2022/07/17 09:52:44;;;;;;;;;;;;;;;17.60;43.42;102190.72;5006245;28;19921;-79
2022/07/17 09:55:10;;;;;;;;;;;;;;;17.58;44.10;102181.13;5005848;28;20019;-78
2022/07/17 09:57:39;;;;;;;;;;;;;;;17.59;44.55;102185.50;5004408;28;20385;-78
2022/07/17 10:00:06;;;;;;;;;;;;;;;17.75;43.22;102180.69;5009678;28;19921;-78
2022/07/17 10:02:33;;;;;;;;;;;;;;;17.65;43.27;102181.88;5005231;28;20020;-81
2022/07/17 10:04:58;;;;;;;;;;;;;;;17.70;43.02;102172.94;5001730;28;19930;-82
2022/07/17 10:07:24;;;;;;;;;;;;;;;17.74;43.68;102179.81;5001138;28;19932;-81
2022/07/17 10:09:49;;;;;;;;;;;;;;;17.66;45.12;102175.69;5012011;28;19925;-81
2022/07/17 10:12:16;;;;;;;;;;;;;;;17.67;44.04;102175.66;5000587;28;19972;-81
2022/07/17 10:14:42;;;;;;;;;;;;;;;17.87;41.42;102175.06;5002777;28;19932;-82
2022/07/17 10:17:11;;;;;;;;;;;;;;;17.98;40.07;102181.75;5005749;28;20020;-81
2022/07/17 10:19:55;;;;;;;;;;;;;;;17.80;41.33;102189.31;5008248;28;19922;-80
2022/07/17 10:22:22;;;;;;;;;;;;;;;17.84;42.33;102194.44;5010557;28;19917;-79
2022/07/17 10:24:52;;;;;;;;;;;;;;;17.76;42.59;102187.69;5008484;28;19930;-79
2022/07/17 10:27:20;;;;;;;;;;;;;;;17.66;54.01;102194.94;5009426;28;20264;-79
2022/07/17 10:29:46;;;;;;;;;;;;;;;17.67;47.35;102193.19;5011495;28;19925;-78
2022/07/17 10:32:15;;;;;;;;;;;;;;;17.75;50.47;102186.81;5009645;28;19928;-78
2022/07/17 10:34:41;;;;;;;;;;;;;;;17.69;43.72;102175.59;5007072;28;20289;-78
2022/07/17 10:37:16;;;;;;;;;;;;;;;17.94;41.48;102179.25;5008920;28;19933;-77
2022/07/17 10:39:51;;;;;;;;;;;;;;;17.90;41.21;102173.22;5007544;28;20392;-77
2022/07/17 10:42:36;;;;;;;;;;;;;;;17.94;40.88;102177.50;5007758;28;19917;-78
2022/07/17 10:45:09;;;;;;;;;;;;;;;17.99;39.49;102172.97;5002238;28;19922;-81
2022/07/17 10:47:45;;;;;;;;;;;;;;;17.94;39.43;102174.00;5005670;28;19921;-81
2022/07/17 10:50:11;;;;;;;;;;;;;;;17.94;37.43;102174.88;5008283;28;19949;-82
2022/07/17 10:52:37;;;;;;;;;;;;;;;18.12;37.84;102176.09;5006707;28;19936;-82
2022/07/17 10:55:04;;;;;;;;;;;;;;;18.16;38.67;102165.41;5006567;28;19925;-81
2022/07/17 10:57:33;;;;;;;;;;;;;;;18.04;37.50;102172.81;5004300;28;19933;-82
2022/07/17 10:59:59;;;;;;;;;;;;;;;18.02;37.85;102172.88;5006140;28;19922;-82
2022/07/17 11:02:28;;;;;;;;;;;;;;;17.95;38.12;102163.44;5007949;28;20389;-81
2022/07/17 11:04:53;;;;;;;;;;;;;;;17.90;38.50;102172.34;5008252;28;19921;-82
2022/07/17 11:07:19;;;;;;;;;;;;;;;17.99;36.11;102165.06;5005886;28;20309;-81
2022/07/17 11:09:48;;;;;;;;;;;;;;;17.93;38.19;102165.25;5008061;28;19929;-78
2022/07/17 11:12:13;;;;;;;;;;;;;;;18.40;35.95;102158.53;5002185;28;19926;-78
2022/07/17 11:14:38;;;;;;;;;;;;;;;18.19;36.95;102164.47;5008468;28;19952;-79
2022/07/17 11:17:04;;;;;;;;;;;;;;;18.00;38.49;102163.31;5006512;28;19922;-78
2022/07/17 11:19:41;;;;;;;;;;;;;;;17.93;38.85;102167.88;5008908;28;19926;-78
2022/07/17 11:22:09;;;;;;;;;;;;;;;17.89;42.17;102168.88;5002080;28;19953;-79
2022/07/17 11:24:47;;;;;;;;;;;;;;;17.80;44.08;102163.88;5006595;28;20000;-78
2022/07/17 11:27:23;;;;;;;;;;;;;;;18.05;37.95;102164.91;5006181;28;19935;-77
2022/07/17 11:29:49;;;;;;;;;;;;;;;18.16;38.36;102162.78;5008991;28;20007;-78
2022/07/17 11:32:14;;;;;;;;;;;;;;;18.08;38.67;102158.66;5012251;28;20020;-78
2022/07/17 11:34:40;;;;;;;;;;;;;;;18.06;38.72;102163.13;4998523;28;20369;-78
2022/07/17 11:37:06;;;;;;;;;;;;;;;17.91;41.63;102163.56;5004888;28;19926;-79
2022/07/17 11:39:37;;;;;;;;;;;;;;;18.37;35.81;102150.75;5007070;28;20020;-81
2022/07/17 11:42:03;;;;;;;;;;;;;;;18.41;35.95;102154.16;5009672;28;19921;-81
2022/07/17 11:44:28;;;;;;;;;;;;;;;18.30;35.75;102151.00;5002971;28;19930;-81
2022/07/17 11:46:54;;;;;;;;;;;;;;;18.21;36.22;102151.28;5009776;28;19925;-81
2022/07/17 11:49:26;;;;;;;;;;;;;;;18.04;41.73;102152.63;5009472;28;19925;-81
2022/07/17 11:51:52;;;;;;;;;;;;;;;18.16;37.73;102162.78;5008754;28;20533;-78
2022/07/17 11:54:17;;;;;;;;;;;;;;;18.40;36.06;102155.03;5009407;28;20381;-82
2022/07/17 11:56:51;;;;;;;;;;;;;;;18.28;36.84;102150.16;5009393;28;20007;-79
2022/07/17 11:59:23;;;;;;;;;;;;;;;18.19;39.02;102153.94;5004065;28;19952;-81
2022/07/17 12:01:48;;;;;;;;;;;;;;;18.05;40.77;102148.25;5003669;28;19953;-81
2022/07/17 12:04:14;;;;;;;;;;;;;;;18.00;41.46;102144.91;5003807;28;20362;-81
2022/07/17 12:06:40;;;;;;;;;;;;;;;17.92;45.65;102145.13;5010365;28;20380;-81
2022/07/17 12:09:06;;;;;;;;;;;;;;;18.51;35.31;102134.56;5004163;28;19925;-82
2022/07/17 12:11:32;;;;;;;;;;;;;;;18.33;35.74;102122.84;5008442;28;20412;-80
2022/07/17 12:14:03;;;;;;;;;;;;;;;18.47;34.99;102128.53;5007183;28;19925;-81
2022/07/17 12:16:29;;;;;;;;;;;;;;;18.82;33.17;102132.63;5006208;28;20012;-81
2022/07/17 12:19:04;;;;;;;;;;;;;;;18.69;33.79;102124.28;5000220;28;19941;-82
2022/07/17 12:21:33;;;;;;;;;;;;;;;18.62;33.86;102133.31;5005328;28;19922;-79
2022/07/17 12:24:03;;;;;;;;;;;;;;;18.43;35.94;102134.75;5000969;28;19983;-78
2022/07/17 12:26:28;;;;;;;;;;;;;;;18.57;34.27;102124.69;4998764;28;20304;-78
2022/07/17 12:28:54;;;;;;;;;;;;;;;18.71;31.94;102129.50;5006303;28;19926;-78
2022/07/17 12:31:20;;;;;;;;;;;;;;;18.47;37.17;102131.16;5005469;28;19932;-78
2022/07/17 12:33:46;;;;;;;;;;;;;;;18.16;41.04;102125.09;5007890;28;19953;-78
2022/07/17 12:36:11;;;;;;;;;;;;;;;18.29;35.68;102115.06;5006186;28;20581;-79